createdAt,value
2023-05-01T00:03:43.953Z,14.40
2023-05-01T00:06:12.128Z,14.30
2023-05-01T00:08:40.038Z,14.30
2023-05-01T00:11:09.925Z,14.30
2023-05-01T00:13:37.950Z,14.30
2023-05-01T00:18:34.621Z,14.40
2023-05-01T00:23:32.293Z,14.20
2023-05-01T00:26:00.167Z,14.10
2023-05-01T00:28:28.036Z,14.10
2023-05-01T00:30:56.351Z,14.10
2023-05-01T00:33:24.238Z,14.10
2023-05-01T00:35:52.867Z,14.20
2023-05-01T00:38:20.731Z,14.20
2023-05-01T00:40:49.993Z,14.00
2023-05-01T00:43:17.930Z,14.00
2023-05-01T00:45:46.645Z,14.00
2023-05-01T00:48:15.929Z,13.90
2023-05-01T00:50:45.116Z,14.00
2023-05-01T00:53:13.286Z,13.90
2023-05-01T00:55:42.737Z,13.90
2023-05-01T00:58:12.619Z,14.00
2023-05-01T01:00:40.522Z,14.10
2023-05-01T01:03:08.638Z,14.10
2023-05-01T01:05:39.486Z,14.00
2023-05-01T01:08:14.770Z,14.10
2023-05-01T01:10:48.059Z,14.00
2023-05-01T01:13:20.889Z,14.00
2023-05-01T01:15:52.186Z,13.80
2023-05-01T01:18:25.224Z,13.80
2023-05-01T01:20:56.813Z,13.80
2023-05-01T01:23:45.684Z,13.80
2023-05-01T01:26:23.322Z,13.80
2023-05-01T01:29:02.718Z,13.70
2023-05-01T01:31:33.890Z,13.70
2023-05-01T01:34:04.330Z,13.60
2023-05-01T01:36:44.192Z,13.60
2023-05-01T01:39:16.248Z,13.60
2023-05-01T01:41:46.436Z,13.60
2023-05-01T01:44:17.694Z,13.50
2023-05-01T01:46:46.245Z,13.50
2023-05-01T01:49:19.565Z,13.50
2023-05-01T01:51:49.881Z,13.50
2023-05-01T01:54:20.399Z,13.40
2023-05-01T01:56:49.630Z,13.40
2023-05-01T01:59:18.217Z,13.40
2023-05-01T02:01:46.816Z,13.40
2023-05-01T02:04:17.084Z,13.40
2023-05-01T02:06:46.549Z,13.40
2023-05-01T02:09:17.887Z,13.40
2023-05-01T02:11:46.465Z,13.30
2023-05-01T02:14:15.041Z,13.30
2023-05-01T02:16:43.656Z,13.30
2023-05-01T02:19:11.720Z,13.30
2023-05-01T02:21:41.795Z,13.30
2023-05-01T02:24:10.499Z,13.30
2023-05-01T02:26:42.499Z,13.20
2023-05-01T02:29:11.280Z,13.20
2023-05-01T02:31:39.678Z,13.20
2023-05-01T02:34:07.626Z,13.20
2023-05-01T02:36:35.569Z,13.20
2023-05-01T02:39:04.937Z,13.20
2023-05-01T02:41:33.357Z,13.20
2023-05-01T02:44:04.470Z,13.10
2023-05-01T02:46:32.945Z,13.10
2023-05-01T02:49:01.659Z,13.10
2023-05-01T02:51:31.582Z,13.10
2023-05-01T02:54:00.350Z,13.10
2023-05-01T02:56:29.752Z,13.10
2023-05-01T02:58:57.947Z,13.10
2023-05-01T03:01:26.137Z,13.10
2023-05-01T03:03:54.139Z,13.10
2023-05-01T03:06:22.143Z,13.10
2023-05-01T03:08:50.103Z,13.00
2023-05-01T03:11:18.014Z,13.00
2023-05-01T03:13:47.648Z,13.00
2023-05-01T03:16:15.551Z,13.00
2023-05-01T03:18:43.491Z,12.90
2023-05-01T03:21:12.715Z,13.00
2023-05-01T03:23:40.666Z,13.00
2023-05-01T03:26:08.619Z,13.00
2023-05-01T03:28:36.555Z,12.90
2023-05-01T03:31:05.907Z,12.90
2023-05-01T03:33:33.907Z,12.90
2023-05-01T03:36:03.617Z,12.90
2023-05-01T03:38:31.729Z,12.90
2023-05-01T03:41:00.013Z,12.90
2023-05-01T03:43:27.932Z,12.90
2023-05-01T03:45:56.205Z,12.80
2023-05-01T03:48:25.631Z,12.80
2023-05-01T03:50:53.661Z,12.80
2023-05-01T03:53:21.603Z,12.70
2023-05-01T03:55:49.464Z,12.70
2023-05-01T03:58:17.389Z,12.70
2023-05-01T04:00:45.849Z,12.70
2023-05-01T04:03:13.875Z,12.70
2023-05-01T04:05:43.352Z,12.60
2023-05-01T04:08:11.377Z,12.60
2023-05-01T04:10:39.340Z,12.60
2023-05-01T04:13:07.278Z,12.50
2023-05-01T04:15:35.202Z,12.50
2023-05-01T04:18:03.125Z,12.50
2023-05-01T04:20:31.465Z,12.50
2023-05-01T04:23:00.733Z,12.50
2023-05-01T04:25:28.675Z,12.50
2023-05-01T04:27:57.422Z,12.50
2023-05-01T04:30:25.350Z,12.50
2023-05-01T04:32:53.276Z,12.50
2023-05-01T04:35:21.296Z,12.50
2023-05-01T04:37:49.208Z,12.50
2023-05-01T04:40:18.698Z,12.40
2023-05-01T04:42:46.604Z,12.40
2023-05-01T04:45:14.695Z,12.40
2023-05-01T04:47:42.593Z,12.40
2023-05-01T04:50:11.822Z,12.50
2023-05-01T04:52:39.690Z,12.50
2023-05-01T04:55:08.255Z,12.40
2023-05-01T04:57:37.496Z,12.40
2023-05-01T05:00:06.058Z,12.40
2023-05-01T05:02:34.100Z,12.40
2023-05-01T05:05:02.152Z,12.40
2023-05-01T05:07:30.328Z,12.40
2023-05-01T05:09:58.368Z,12.40
2023-05-01T05:12:26.492Z,12.40
2023-05-01T05:14:55.836Z,12.50
2023-05-01T05:17:23.716Z,12.50
2023-05-01T05:19:51.722Z,12.50
2023-05-01T05:22:19.624Z,12.40
2023-05-01T05:24:47.508Z,12.50
2023-05-01T05:27:16.041Z,12.50
2023-05-01T05:29:44.639Z,12.50
2023-05-01T05:32:13.974Z,12.50
2023-05-01T05:34:41.940Z,12.60
2023-05-01T05:37:09.858Z,12.70
2023-05-01T05:39:38.070Z,12.70
2023-05-01T05:42:06.105Z,12.70
2023-05-01T05:44:36.071Z,12.80
2023-05-01T05:47:03.970Z,12.90
2023-05-01T05:49:33.240Z,12.90
2023-05-01T05:52:01.146Z,13.00
2023-05-01T05:54:29.246Z,13.00
2023-05-01T05:56:57.157Z,13.10
2023-05-01T05:59:25.027Z,13.20
2023-05-01T06:01:52.920Z,13.30
2023-05-01T06:04:20.814Z,13.30
2023-05-01T06:06:50.274Z,13.30
2023-05-01T06:09:20.259Z,13.40
2023-05-01T06:11:48.338Z,13.50
2023-05-01T06:14:16.698Z,13.50
2023-05-01T06:16:45.020Z,13.60
2023-05-01T06:19:12.995Z,13.70
2023-05-01T06:21:41.279Z,13.80
2023-05-01T06:24:10.876Z,13.90
2023-05-01T06:26:38.786Z,14.00
2023-05-01T06:29:07.041Z,14.10
2023-05-01T06:31:35.475Z,14.20
2023-05-01T06:34:03.450Z,14.40
2023-05-01T06:36:31.478Z,14.60
2023-05-01T06:38:59.423Z,14.70
2023-05-01T06:41:28.769Z,14.90
2023-05-01T06:43:56.709Z,15.10
2023-05-01T06:46:24.672Z,15.30
2023-05-01T06:48:52.624Z,15.50
2023-05-01T06:53:48.798Z,15.40
2023-05-01T06:56:16.706Z,15.60
2023-05-01T06:58:46.035Z,15.70
2023-05-01T07:01:14.002Z,16.00
2023-05-01T07:03:42.266Z,16.00
2023-05-01T07:06:10.413Z,15.70
2023-05-01T07:08:38.389Z,15.80
2023-05-01T07:11:07.565Z,16.10
2023-05-01T07:13:35.517Z,16.30
2023-05-01T07:16:05.049Z,16.50
2023-05-01T07:18:32.964Z,16.80
2023-05-01T07:21:00.900Z,16.40
2023-05-01T07:23:29.051Z,16.90
2023-05-01T07:25:57.055Z,17.10
2023-05-01T07:28:24.996Z,17.40
2023-05-01T07:30:53.029Z,17.80
2023-05-01T07:35:50.577Z,18.00
2023-05-01T07:38:18.603Z,17.80
2023-05-01T07:40:46.609Z,17.90
2023-05-01T07:43:14.510Z,18.00
2023-05-01T07:45:43.099Z,18.10
2023-05-01T07:48:11.268Z,18.00
2023-05-01T07:50:39.972Z,18.10
2023-05-01T07:53:09.314Z,18.10
2023-05-01T07:55:37.930Z,18.20
2023-05-01T07:58:06.451Z,18.30
2023-05-01T08:00:34.541Z,18.40
2023-05-01T08:03:02.827Z,18.30
2023-05-01T08:05:31.732Z,18.10
2023-05-01T08:07:59.643Z,18.20
2023-05-01T08:10:28.951Z,18.40
2023-05-01T08:12:56.915Z,18.40
2023-05-01T08:15:25.752Z,18.60
2023-05-01T08:17:53.763Z,18.50
2023-05-01T08:20:21.874Z,18.60
2023-05-01T08:22:49.759Z,18.50
2023-05-01T08:25:17.814Z,18.60
2023-05-01T08:27:47.173Z,18.80
2023-05-01T08:32:43.305Z,19.00
2023-05-01T08:35:11.629Z,18.90
2023-05-01T08:42:37.443Z,18.60
2023-05-01T08:45:08.504Z,18.60
2023-05-01T08:47:38.515Z,18.40
2023-05-01T08:50:10.087Z,18.40
2023-05-01T08:52:39.355Z,18.40
2023-05-01T08:55:09.124Z,18.40
2023-05-01T08:57:38.012Z,18.10
2023-05-01T09:00:08.829Z,18.10
2023-05-01T09:02:37.757Z,18.10
2023-05-01T09:05:07.884Z,17.90
2023-05-01T09:07:35.823Z,17.80
2023-05-01T09:10:03.918Z,17.80
2023-05-01T09:12:35.416Z,17.80
2023-05-01T09:15:04.055Z,17.90
2023-05-01T09:17:33.503Z,17.90
2023-05-01T09:20:02.893Z,17.80
2023-05-01T09:22:31.389Z,17.80
2023-05-01T09:24:59.392Z,17.80
2023-05-01T09:27:27.867Z,17.80
2023-05-01T09:29:55.988Z,17.80
2023-05-01T09:32:27.613Z,17.70
2023-05-01T09:34:57.626Z,17.90
2023-05-01T09:37:28.324Z,17.90
2023-05-01T09:40:03.856Z,17.90
2023-05-01T09:42:32.537Z,18.00
2023-05-01T09:45:00.932Z,18.00
2023-05-01T09:47:29.495Z,18.10
2023-05-01T09:49:59.654Z,18.20
2023-05-01T09:52:28.113Z,18.30
2023-05-01T09:55:14.814Z,18.40
2023-05-01T09:57:44.035Z,18.40
2023-05-01T10:00:12.453Z,18.50
2023-05-01T10:02:41.247Z,18.60
2023-05-01T10:05:11.999Z,18.80
2023-05-01T10:07:40.194Z,18.80
2023-05-01T10:10:18.138Z,18.90
2023-05-01T10:12:46.697Z,19.10
2023-05-01T10:15:24.551Z,18.90
2023-05-01T10:17:54.773Z,19.10
2023-05-01T10:20:24.468Z,19.30
2023-05-01T10:22:52.447Z,19.30
2023-05-01T10:25:21.740Z,19.50
2023-05-01T10:27:50.155Z,19.60
2023-05-01T10:30:18.365Z,19.80
2023-05-01T10:32:47.423Z,19.80
2023-05-01T10:35:16.341Z,19.50
2023-05-01T10:37:48.228Z,19.50
2023-05-01T10:40:35.062Z,19.40
2023-05-01T10:43:17.007Z,19.30
2023-05-01T10:45:45.569Z,19.30
2023-05-01T10:48:13.506Z,19.20
2023-05-01T10:51:15.496Z,19.10
2023-05-01T10:53:45.556Z,19.10
2023-05-01T10:56:28.294Z,19.00
2023-05-01T10:58:57.051Z,18.80
2023-05-01T11:01:31.885Z,18.80
2023-05-01T11:04:00.371Z,18.60
2023-05-01T11:06:28.505Z,18.70
2023-05-01T11:08:58.648Z,18.70
2023-05-01T11:11:45.141Z,18.70
2023-05-01T11:14:13.049Z,18.70
2023-05-01T11:16:48.772Z,18.70
2023-05-01T11:19:35.154Z,18.60
2023-05-01T11:22:03.088Z,18.60
2023-05-01T11:24:35.253Z,18.70
2023-05-01T11:27:03.545Z,18.70
2023-05-01T11:29:32.765Z,18.90
2023-05-01T11:32:01.040Z,18.90
2023-05-01T11:34:29.286Z,19.00
2023-05-01T11:36:57.203Z,18.80
2023-05-01T11:39:25.119Z,19.00
2023-05-01T11:42:07.132Z,19.10
2023-05-01T11:44:35.099Z,19.60
2023-05-01T11:47:03.216Z,19.70
2023-05-01T11:49:31.180Z,19.80
2023-05-01T11:51:59.333Z,20.10
2023-05-01T11:54:27.830Z,20.50
2023-05-01T11:57:00.858Z,20.70
2023-05-01T11:59:29.116Z,20.70
2023-05-01T12:01:57.193Z,21.00
2023-05-01T12:04:26.931Z,21.00
2023-05-01T12:06:56.132Z,21.10
2023-05-01T12:09:25.444Z,21.80
2023-05-01T12:11:53.929Z,22.60
2023-05-01T12:14:24.395Z,23.10
2023-05-01T12:16:52.695Z,23.30
2023-05-01T12:19:23.874Z,23.80
2023-05-01T12:22:05.984Z,24.20
2023-05-01T12:24:33.951Z,23.90
2023-05-01T12:27:03.525Z,23.80
2023-05-01T12:29:42.143Z,23.90
2023-05-01T12:32:10.219Z,24.50
2023-05-01T12:34:38.596Z,24.70
2023-05-01T12:37:08.972Z,24.90
2023-05-01T12:39:40.481Z,24.50
2023-05-01T12:42:15.166Z,23.90
2023-05-01T12:44:44.898Z,23.40
2023-05-01T12:47:13.417Z,23.50
2023-05-01T12:49:41.595Z,23.60
2023-05-01T12:52:09.922Z,23.30
2023-05-01T12:54:38.600Z,23.10
2023-05-01T12:57:07.929Z,23.00
2023-05-01T12:59:36.855Z,22.80
2023-05-01T13:02:06.657Z,22.50
2023-05-01T13:04:35.143Z,22.50
2023-05-01T13:07:03.926Z,22.50
2023-05-01T13:09:32.333Z,22.70
2023-05-01T13:12:01.868Z,23.20
2023-05-01T13:14:30.616Z,22.60
2023-05-01T13:16:58.652Z,22.40
2023-05-01T13:19:28.929Z,22.00
2023-05-01T13:21:57.536Z,21.20
2023-05-01T13:24:25.658Z,21.10
2023-05-01T13:27:02.802Z,21.20
2023-05-01T13:29:32.408Z,21.10
2023-05-01T13:32:00.590Z,21.00
2023-05-01T13:34:32.959Z,21.60
2023-05-01T13:37:02.239Z,22.00
2023-05-01T13:39:30.495Z,22.40
2023-05-01T13:41:58.396Z,22.60
2023-05-01T13:44:28.304Z,22.40
2023-05-01T13:46:56.322Z,23.10
2023-05-01T13:49:25.720Z,23.30
2023-05-01T13:51:55.602Z,23.80
2023-05-01T13:54:23.821Z,24.00
2023-05-01T13:56:52.536Z,24.10
2023-05-01T13:59:20.568Z,24.30
2023-05-01T14:01:48.820Z,23.90
2023-05-01T14:04:18.066Z,23.60
2023-05-01T14:06:47.728Z,23.50
2023-05-01T14:09:18.430Z,23.70
2023-05-01T14:11:47.689Z,23.90
2023-05-01T14:14:16.602Z,23.50
2023-05-01T14:16:47.832Z,23.60
2023-05-01T14:19:16.521Z,23.70
2023-05-01T14:21:44.426Z,23.10
2023-05-01T14:24:12.437Z,22.90
2023-05-01T14:26:44.232Z,22.30
2023-05-01T14:29:18.108Z,22.70
2023-05-01T14:31:46.130Z,22.70
2023-05-01T14:34:16.215Z,22.50
2023-05-01T14:36:44.173Z,22.60
2023-05-01T14:39:12.052Z,22.40
2023-05-01T14:41:42.913Z,22.20
2023-05-01T14:44:12.867Z,21.80
2023-05-01T14:46:45.719Z,21.90
2023-05-01T14:49:18.344Z,21.90
2023-05-01T14:51:46.216Z,21.70
2023-05-01T14:54:14.585Z,21.60
2023-05-01T14:56:44.954Z,21.70
2023-05-01T14:59:13.158Z,21.60
2023-05-01T15:01:41.306Z,21.90
2023-05-01T15:04:10.922Z,22.50
2023-05-01T15:06:39.246Z,22.90
2023-05-01T15:09:07.132Z,22.60
2023-05-01T15:11:35.036Z,22.10
2023-05-01T15:14:04.376Z,22.50
2023-05-01T15:16:32.744Z,21.90
2023-05-01T15:19:01.177Z,21.90
2023-05-01T15:21:29.085Z,21.80
2023-05-01T15:23:56.990Z,21.80
2023-05-01T15:26:24.926Z,21.50
2023-05-01T15:28:52.854Z,21.50
2023-05-01T15:31:22.858Z,22.10
2023-05-01T15:33:50.813Z,22.20
2023-05-01T15:36:19.119Z,22.50
2023-05-01T15:38:47.665Z,22.50
2023-05-01T15:41:18.285Z,22.60
2023-05-01T15:43:46.870Z,22.60
2023-05-01T15:46:15.265Z,22.70
2023-05-01T15:48:45.319Z,22.50
2023-05-01T15:51:13.208Z,22.40
2023-05-01T15:53:41.146Z,22.50
2023-05-01T15:56:09.763Z,22.50
2023-05-01T15:58:37.677Z,22.60
2023-05-01T16:01:05.718Z,22.50
2023-05-01T16:03:33.731Z,22.70
2023-05-01T16:06:04.717Z,22.50
2023-05-01T16:08:33.499Z,22.40
2023-05-01T16:11:01.458Z,22.20
2023-05-01T16:13:29.504Z,22.20
2023-05-01T16:15:57.483Z,22.20
2023-05-01T16:18:25.855Z,22.30
2023-05-01T16:20:54.973Z,22.00
2023-05-01T16:23:26.097Z,21.90
2023-05-01T16:25:54.024Z,22.00
2023-05-01T16:28:21.918Z,22.00
2023-05-01T16:30:49.896Z,21.90
2023-05-01T16:33:19.272Z,21.80
2023-05-01T16:35:47.964Z,21.80
2023-05-01T16:38:15.906Z,21.60
2023-05-01T16:40:45.927Z,21.60
2023-05-01T16:43:14.106Z,21.70
2023-05-01T16:45:42.042Z,21.50
2023-05-01T16:48:10.459Z,21.30
2023-05-01T16:50:40.612Z,21.00
2023-05-01T16:53:08.600Z,20.90
2023-05-01T16:55:36.569Z,20.60
2023-05-01T16:58:06.852Z,20.80
2023-05-01T17:00:34.786Z,20.90
2023-05-01T17:03:02.989Z,20.90
2023-05-01T17:05:30.857Z,20.90
2023-05-01T17:07:58.903Z,20.90
2023-05-01T17:10:27.048Z,20.90
2023-05-01T17:12:55.039Z,20.70
2023-05-01T17:15:24.553Z,20.70
2023-05-01T17:17:52.460Z,20.70
2023-05-01T17:20:21.172Z,20.70
2023-05-01T17:22:49.289Z,20.60
2023-05-01T17:25:17.357Z,20.50
2023-05-01T17:27:45.299Z,20.60
2023-05-01T17:30:13.758Z,20.50
2023-05-01T17:32:43.246Z,20.50
2023-05-01T17:35:11.282Z,20.40
2023-05-01T17:37:39.902Z,20.40
2023-05-01T17:40:08.876Z,20.20
2023-05-01T17:42:37.267Z,20.10
2023-05-01T17:45:07.440Z,20.00
2023-05-01T17:47:35.492Z,20.00
2023-05-01T17:50:05.751Z,19.90
2023-05-01T17:52:33.655Z,19.80
2023-05-01T17:55:01.552Z,19.60
2023-05-01T17:57:29.454Z,19.60
2023-05-01T17:59:58.281Z,19.50
2023-05-01T18:02:27.415Z,19.30
2023-05-01T18:04:55.395Z,19.20
2023-05-01T18:07:24.834Z,19.10
2023-05-01T18:09:52.726Z,19.10
2023-05-01T18:12:20.668Z,18.90
2023-05-01T18:14:48.761Z,18.90
2023-05-01T18:17:17.023Z,18.90
2023-05-01T18:19:45.005Z,18.80
2023-05-01T18:22:12.907Z,18.70
2023-05-01T18:24:42.543Z,18.70
2023-05-01T18:27:10.784Z,18.60
2023-05-01T18:29:38.679Z,18.60
2023-05-01T18:32:06.959Z,18.50
2023-05-01T18:34:34.894Z,18.40
2023-05-01T18:37:02.811Z,18.30
2023-05-01T18:39:30.727Z,18.30
2023-05-01T18:42:00.138Z,18.30
2023-05-01T18:44:28.014Z,18.00
2023-05-01T18:46:55.905Z,17.90
2023-05-01T18:49:25.037Z,17.80
2023-05-01T18:51:53.130Z,17.80
2023-05-01T18:56:50.961Z,17.70
2023-05-01T18:59:21.760Z,17.50
2023-05-01T19:01:50.872Z,17.50
2023-05-01T19:04:19.673Z,17.70
2023-05-01T19:09:16.037Z,17.30
2023-05-01T19:14:13.078Z,17.20
2023-05-01T19:16:42.404Z,17.10
2023-05-01T19:19:10.774Z,17.10
2023-05-01T19:24:08.170Z,16.90
2023-05-01T19:26:36.122Z,16.90
2023-05-01T19:29:04.112Z,16.80
2023-05-01T19:31:32.148Z,16.80
2023-05-01T19:34:01.564Z,16.60
2023-05-01T19:36:29.478Z,16.50
2023-05-01T19:38:57.408Z,16.40
2023-05-01T19:41:25.581Z,16.50
2023-05-01T19:43:53.496Z,16.40
2023-05-01T19:46:21.536Z,16.30
2023-05-01T19:51:19.137Z,16.20
2023-05-01T19:53:47.162Z,16.20
2023-05-01T19:56:15.066Z,16.10
2023-05-01T19:58:43.053Z,16.00
2023-05-01T20:01:13.103Z,15.90
2023-05-01T20:03:41.161Z,15.90
2023-05-01T20:06:09.219Z,15.90
2023-05-01T20:08:38.543Z,15.80
2023-05-01T20:11:07.398Z,15.80
2023-05-01T20:13:35.434Z,15.80
2023-05-01T20:16:03.484Z,15.70
2023-05-01T20:18:32.073Z,15.60
2023-05-01T20:20:59.942Z,15.60
2023-05-01T20:23:27.878Z,15.50
2023-05-01T20:25:57.361Z,15.50
2023-05-01T20:28:25.852Z,15.40
2023-05-01T20:33:22.097Z,15.40
2023-05-01T20:35:51.419Z,15.30
2023-05-01T20:38:19.336Z,15.30
2023-05-01T20:40:47.188Z,15.60
2023-05-01T20:43:16.399Z,15.20
2023-05-01T20:45:44.400Z,15.10
2023-05-01T20:48:12.423Z,15.00
2023-05-01T20:50:41.771Z,14.90
2023-05-01T20:53:09.816Z,14.90
2023-05-01T20:55:37.699Z,14.80
2023-05-01T20:58:06.134Z,14.80
2023-05-01T21:00:35.442Z,14.70
2023-05-01T21:03:03.420Z,14.60
2023-05-01T21:05:31.391Z,14.60
2023-05-01T21:07:59.278Z,14.60
2023-05-01T21:12:56.255Z,14.30
2023-05-01T21:15:24.254Z,14.10
2023-05-01T21:17:53.564Z,14.10
2023-05-01T21:20:30.318Z,14.10
2023-05-01T21:22:58.296Z,14.10
2023-05-01T21:25:27.925Z,14.00
2023-05-01T21:27:55.926Z,14.00
2023-05-01T21:30:30.102Z,13.90
2023-05-01T21:32:59.681Z,13.90
2023-05-01T21:35:28.445Z,13.90
2023-05-01T21:37:56.564Z,13.80
2023-05-01T21:40:24.821Z,13.80
2023-05-01T21:42:53.985Z,13.80
2023-05-01T21:45:21.970Z,13.80
2023-05-01T21:47:50.713Z,13.70
2023-05-01T21:50:20.712Z,13.70
2023-05-01T21:52:49.250Z,13.60
2023-05-01T21:55:18.428Z,13.50
2023-05-01T21:57:46.358Z,13.50
2023-05-01T22:00:15.836Z,13.50
2023-05-01T22:02:44.821Z,13.50
2023-05-01T22:05:14.183Z,13.30
2023-05-01T22:07:45.111Z,13.30
2023-05-01T22:10:14.283Z,13.40
2023-05-01T22:12:42.687Z,13.40
2023-05-01T22:15:11.669Z,13.40
2023-05-01T22:17:40.300Z,13.50
2023-05-01T22:20:09.669Z,13.50
2023-05-01T22:22:38.174Z,13.40
2023-05-01T22:25:08.125Z,13.50
2023-05-01T22:27:36.444Z,13.40
2023-05-01T22:30:04.649Z,13.40
2023-05-01T22:32:32.644Z,13.40
2023-05-01T22:35:00.546Z,13.40
2023-05-01T22:37:28.447Z,13.40
2023-05-01T22:39:56.422Z,13.50
2023-05-01T22:42:25.794Z,13.50
2023-05-01T22:44:53.684Z,13.50
2023-05-01T22:47:21.619Z,13.50
2023-05-01T22:49:49.521Z,13.40
2023-05-01T22:52:17.369Z,13.40
2023-05-01T22:54:45.487Z,13.40
2023-05-01T22:57:13.770Z,13.40
2023-05-01T22:59:43.647Z,13.40
2023-05-01T23:02:16.189Z,13.40
2023-05-01T23:04:44.347Z,13.40
2023-05-01T23:07:14.131Z,13.40
2023-05-01T23:09:42.051Z,13.40
2023-05-01T23:12:15.477Z,13.40
2023-05-01T23:14:46.928Z,13.40
2023-05-01T23:17:14.869Z,13.30
2023-05-01T23:19:43.751Z,13.40
2023-05-01T23:22:13.100Z,13.30
2023-05-01T23:24:42.602Z,13.20
2023-05-01T23:27:10.484Z,13.20
2023-05-01T23:29:40.542Z,13.30
2023-05-01T23:32:15.937Z,13.30
2023-05-01T23:34:43.811Z,13.30
2023-05-01T23:37:11.713Z,13.30
2023-05-01T23:39:39.616Z,13.30
2023-05-01T23:42:07.774Z,13.20
2023-05-01T23:44:35.659Z,13.20
2023-05-01T23:47:03.693Z,13.10
2023-05-01T23:49:33.019Z,13.10
2023-05-01T23:52:00.933Z,13.20
2023-05-01T23:54:28.916Z,13.20
2023-05-01T23:56:56.811Z,13.20
2023-05-01T23:59:24.658Z,13.10
